createdAt,value
2022-08-03T00:01:45.883Z,21.50
2022-08-03T00:04:13.943Z,21.50
2022-08-03T00:06:42.183Z,21.50
2022-08-03T00:09:10.496Z,21.50
2022-08-03T00:11:38.848Z,21.50
2022-08-03T00:14:07.928Z,21.40
2022-08-03T00:16:37.267Z,21.40
2022-08-03T00:19:05.368Z,21.30
2022-08-03T00:21:33.375Z,21.30
2022-08-03T00:24:01.628Z,21.30
2022-08-03T00:26:29.537Z,21.30
2022-08-03T00:28:57.536Z,21.30
2022-08-03T00:31:39.907Z,21.20
2022-08-03T00:34:14.783Z,21.20
2022-08-03T00:36:42.718Z,21.20
2022-08-03T00:39:10.809Z,21.10
2022-08-03T00:41:40.751Z,21.10
2022-08-03T00:44:08.689Z,21.10
2022-08-03T00:46:36.705Z,21.00
2022-08-03T00:49:04.783Z,21.00
2022-08-03T00:51:35.350Z,21.00
2022-08-03T00:54:03.351Z,21.00
2022-08-03T00:56:31.994Z,21.00
2022-08-03T00:59:00.456Z,21.00
2022-08-03T01:01:32.346Z,20.90
2022-08-03T01:04:00.942Z,20.90
2022-08-03T01:06:38.808Z,20.90
2022-08-03T01:09:13.834Z,20.90
2022-08-03T01:12:00.106Z,20.80
2022-08-03T01:14:35.283Z,20.80
2022-08-03T01:17:09.723Z,20.80
2022-08-03T01:19:46.789Z,20.80
2022-08-03T01:22:40.976Z,20.70
2022-08-03T01:25:19.075Z,20.70
2022-08-03T01:27:58.317Z,20.60
2022-08-03T01:30:32.406Z,20.70
2022-08-03T01:33:04.937Z,20.60
2022-08-03T01:35:38.600Z,20.60
2022-08-03T01:38:12.927Z,20.60
2022-08-03T01:40:42.617Z,20.60
2022-08-03T01:43:15.826Z,20.50
2022-08-03T01:46:06.443Z,20.50
2022-08-03T01:48:35.142Z,20.50
2022-08-03T01:51:03.830Z,20.50
2022-08-03T01:53:34.790Z,20.40
2022-08-03T01:56:06.807Z,20.40
2022-08-03T01:58:37.391Z,20.40
2022-08-03T02:01:08.040Z,20.30
2022-08-03T02:04:00.510Z,20.30
2022-08-03T02:07:00.578Z,20.30
2022-08-03T02:09:18.436Z,20.30
2022-08-03T02:11:47.755Z,20.20
2022-08-03T02:14:17.179Z,20.20
2022-08-03T02:16:46.864Z,20.10
2022-08-03T02:19:16.001Z,20.10
2022-08-03T02:21:56.409Z,20.10
2022-08-03T02:24:29.724Z,20.00
2022-08-03T02:26:58.509Z,20.00
2022-08-03T02:29:39.348Z,20.00
2022-08-03T02:32:13.453Z,20.00
2022-08-03T02:34:43.266Z,19.90
2022-08-03T02:37:13.099Z,19.90
2022-08-03T02:39:43.194Z,19.90
2022-08-03T02:42:12.987Z,19.80
2022-08-03T02:44:47.580Z,19.90
2022-08-03T02:47:20.856Z,19.90
2022-08-03T02:49:52.179Z,19.80
2022-08-03T02:52:23.149Z,19.80
2022-08-03T02:54:54.477Z,19.80
2022-08-03T02:57:23.789Z,19.80
2022-08-03T02:59:53.695Z,19.70
2022-08-03T03:02:24.197Z,19.70
2022-08-03T03:05:53.566Z,19.60
2022-08-03T03:07:53.085Z,19.70
2022-08-03T03:10:22.955Z,19.60
2022-08-03T03:12:53.769Z,19.60
2022-08-03T03:15:22.291Z,19.50
2022-08-03T03:17:53.508Z,19.60
2022-08-03T03:20:29.333Z,19.50
2022-08-03T03:23:00.898Z,19.50
2022-08-03T03:25:31.582Z,19.50
2022-08-03T03:28:00.255Z,19.50
2022-08-03T03:30:29.860Z,19.40
2022-08-03T03:32:59.972Z,19.40
2022-08-03T03:35:28.246Z,19.40
2022-08-03T03:37:56.756Z,19.40
2022-08-03T03:40:27.347Z,19.30
2022-08-03T03:42:55.557Z,19.30
2022-08-03T03:45:24.463Z,19.30
2022-08-03T03:47:52.497Z,19.30
2022-08-03T03:50:23.339Z,19.30
2022-08-03T03:52:51.434Z,19.30
2022-08-03T03:55:19.814Z,19.30
2022-08-03T03:57:47.856Z,19.20
2022-08-03T04:00:17.730Z,19.20
2022-08-03T04:02:46.198Z,19.20
2022-08-03T04:05:32.466Z,19.30
2022-08-03T04:08:22.324Z,19.30
2022-08-03T04:11:01.424Z,19.30
2022-08-03T04:13:32.836Z,19.30
2022-08-03T04:16:02.129Z,19.30
2022-08-03T04:18:33.567Z,19.30
2022-08-03T04:21:04.597Z,19.30
2022-08-03T04:23:36.721Z,19.30
2022-08-03T04:26:06.427Z,19.30
2022-08-03T04:28:35.455Z,19.30
2022-08-03T04:31:05.407Z,19.30
2022-08-03T04:33:35.056Z,19.40
2022-08-03T04:36:07.889Z,19.40
2022-08-03T04:38:41.042Z,19.30
2022-08-03T04:41:09.898Z,19.40
2022-08-03T04:43:40.686Z,19.40
2022-08-03T04:46:09.544Z,19.40
2022-08-03T04:48:37.721Z,19.40
2022-08-03T04:51:06.137Z,19.40
2022-08-03T04:53:34.133Z,19.50
2022-08-03T04:56:07.999Z,19.40
2022-08-03T04:58:35.974Z,19.50
2022-08-03T05:01:03.940Z,19.50
2022-08-03T05:03:32.583Z,19.50
2022-08-03T05:06:01.844Z,19.60
2022-08-03T05:08:46.190Z,19.70
2022-08-03T05:11:16.836Z,19.70
2022-08-03T05:13:44.945Z,19.80
2022-08-03T05:16:13.866Z,19.80
2022-08-03T05:18:42.286Z,19.80
2022-08-03T05:21:10.629Z,19.90
2022-08-03T05:23:38.527Z,20.00
2022-08-03T05:26:06.447Z,20.00
2022-08-03T05:28:35.682Z,20.10
2022-08-03T05:31:03.767Z,20.20
2022-08-03T05:33:31.793Z,20.20
2022-08-03T05:36:04.167Z,20.20
2022-08-03T05:38:34.294Z,20.30
2022-08-03T05:41:23.549Z,20.40
2022-08-03T05:43:53.674Z,20.40
2022-08-03T05:46:22.462Z,20.50
2022-08-03T05:48:50.525Z,20.50
2022-08-03T05:51:18.658Z,20.60
2022-08-03T05:53:46.812Z,20.70
2022-08-03T05:56:16.648Z,20.70
2022-08-03T05:58:46.613Z,20.90
2022-08-03T06:01:16.911Z,20.90
2022-08-03T06:03:45.141Z,21.00
2022-08-03T06:06:13.103Z,21.10
2022-08-03T06:08:41.668Z,21.10
2022-08-03T06:11:09.930Z,21.20
2022-08-03T06:13:38.055Z,21.30
2022-08-03T06:16:06.803Z,21.30
2022-08-03T06:18:36.547Z,21.40
2022-08-03T06:21:14.594Z,21.40
2022-08-03T06:23:54.383Z,21.50
2022-08-03T06:26:28.018Z,21.60
2022-08-03T06:28:57.497Z,21.70
2022-08-03T06:31:32.885Z,21.80
2022-08-03T06:34:34.225Z,21.80
2022-08-03T06:36:53.160Z,21.80
2022-08-03T06:39:23.198Z,22.00
2022-08-03T06:41:52.756Z,22.00
2022-08-03T06:44:20.910Z,22.10
2022-08-03T06:46:48.883Z,22.20
2022-08-03T06:49:18.851Z,22.20
2022-08-03T06:52:04.630Z,22.30
2022-08-03T06:54:35.720Z,22.40
2022-08-03T06:57:04.049Z,22.50
2022-08-03T07:00:10.700Z,22.60
2022-08-03T07:02:20.267Z,22.70
2022-08-03T07:04:50.322Z,22.80
2022-08-03T07:07:19.256Z,22.90
2022-08-03T07:09:57.387Z,23.00
2022-08-03T07:12:27.730Z,23.10
2022-08-03T07:15:00.389Z,23.20
2022-08-03T07:17:30.074Z,23.30
2022-08-03T07:20:00.037Z,23.50
2022-08-03T07:22:28.289Z,23.60
2022-08-03T07:24:56.524Z,23.70
2022-08-03T07:27:24.572Z,23.80
2022-08-03T07:29:52.614Z,24.00
2022-08-03T07:32:20.552Z,24.10
2022-08-03T07:34:48.554Z,24.20
2022-08-03T07:37:18.051Z,24.30
2022-08-03T07:39:45.981Z,24.40
2022-08-03T07:42:14.153Z,24.50
2022-08-03T07:44:42.434Z,24.60
2022-08-03T07:47:10.413Z,24.70
2022-08-03T07:49:50.605Z,24.90
2022-08-03T07:52:37.427Z,25.00
2022-08-03T07:55:06.359Z,25.20
2022-08-03T07:57:34.393Z,25.30
2022-08-03T08:00:02.905Z,25.40
2022-08-03T08:02:31.240Z,25.50
2022-08-03T08:05:03.553Z,25.60
2022-08-03T08:07:34.952Z,25.70
2022-08-03T08:10:03.297Z,25.80
2022-08-03T08:12:31.280Z,25.90
2022-08-03T08:14:59.251Z,25.90
2022-08-03T08:17:27.188Z,26.10
2022-08-03T08:19:55.295Z,26.20
2022-08-03T08:22:30.231Z,26.40
2022-08-03T08:25:01.210Z,26.60
2022-08-03T08:28:29.707Z,26.70
2022-08-03T08:30:20.118Z,26.90
2022-08-03T08:32:48.510Z,27.00
2022-08-03T08:35:17.397Z,27.10
2022-08-03T08:37:50.780Z,27.20
2022-08-03T08:40:22.800Z,27.30
2022-08-03T08:42:58.357Z,27.50
2022-08-03T08:45:27.500Z,27.60
2022-08-03T08:48:00.379Z,27.70
2022-08-03T08:50:31.412Z,27.90
2022-08-03T08:53:02.962Z,28.00
2022-08-03T08:55:59.495Z,28.20
2022-08-03T08:58:23.725Z,28.30
2022-08-03T09:00:52.535Z,28.50
2022-08-03T09:03:22.719Z,28.60
2022-08-03T09:06:00.378Z,28.90
2022-08-03T09:08:28.681Z,29.70
2022-08-03T09:10:57.981Z,30.60
2022-08-03T09:13:26.377Z,31.50
2022-08-03T09:16:10.502Z,32.30
2022-08-03T09:18:38.540Z,33.30
2022-08-03T09:21:32.632Z,34.20
2022-08-03T09:24:05.347Z,35.60
2022-08-03T09:26:36.682Z,38.00
2022-08-03T09:29:14.441Z,40.50
2022-08-03T09:31:45.555Z,42.90
2022-08-03T09:34:15.439Z,44.70
2022-08-03T09:36:46.245Z,46.40
2022-08-03T09:39:16.123Z,47.80
2022-08-03T09:41:47.307Z,48.40
2022-08-03T09:44:24.267Z,49.10
2022-08-03T09:46:55.166Z,50.00
2022-08-03T09:49:23.679Z,50.80
2022-08-03T09:52:31.641Z,51.70
2022-08-03T09:54:40.278Z,52.20
2022-08-03T09:57:09.860Z,52.50
2022-08-03T09:59:38.110Z,53.30
2022-08-03T10:02:23.769Z,53.80
2022-08-03T10:04:52.843Z,54.30
2022-08-03T10:07:22.073Z,54.20
2022-08-03T10:09:58.360Z,54.60
2022-08-03T10:12:49.239Z,55.10
2022-08-03T10:16:22.721Z,55.40
2022-08-03T10:18:05.935Z,55.40
2022-08-03T10:20:38.140Z,55.60
2022-08-03T10:23:06.870Z,55.70
2022-08-03T10:25:37.783Z,55.60
2022-08-03T10:28:09.072Z,55.70
2022-08-03T10:30:40.244Z,55.40
2022-08-03T10:33:49.936Z,55.00
2022-08-03T10:36:03.186Z,54.30
2022-08-03T10:38:36.645Z,54.30
2022-08-03T10:41:06.582Z,54.30
2022-08-03T10:43:43.290Z,54.50
2022-08-03T10:46:11.492Z,54.60
2022-08-03T10:48:39.959Z,54.50
2022-08-03T10:51:08.176Z,54.40
2022-08-03T10:53:38.873Z,54.30
2022-08-03T10:56:48.069Z,53.90
2022-08-03T10:59:14.647Z,53.70
2022-08-03T11:01:59.919Z,53.40
2022-08-03T11:04:29.757Z,53.70
2022-08-03T11:07:20.677Z,53.20
2022-08-03T11:09:52.298Z,53.10
2022-08-03T11:12:30.892Z,53.10
2022-08-03T11:15:07.411Z,52.00
2022-08-03T11:17:45.839Z,50.50
2022-08-03T11:20:45.502Z,49.10
2022-08-03T11:23:14.013Z,47.30
2022-08-03T11:26:13.004Z,45.30
2022-08-03T11:28:42.102Z,43.70
2022-08-03T11:31:50.599Z,42.40
2022-08-03T11:34:19.554Z,41.60
2022-08-03T11:37:30.164Z,40.60
2022-08-03T11:40:02.826Z,39.90
2022-08-03T11:42:48.326Z,39.40
2022-08-03T11:45:16.777Z,38.70
2022-08-03T11:47:50.509Z,38.20
2022-08-03T11:50:21.097Z,37.90
2022-08-03T11:52:50.617Z,37.40
2022-08-03T11:55:21.822Z,37.20
2022-08-03T11:59:15.143Z,37.00
2022-08-03T12:00:38.659Z,36.80
2022-08-03T12:03:09.745Z,36.60
2022-08-03T12:05:51.345Z,36.50
2022-08-03T12:08:31.240Z,36.40
2022-08-03T12:11:00.780Z,36.20
2022-08-03T12:13:56.816Z,36.10
2022-08-03T12:16:25.879Z,36.10
2022-08-03T12:18:58.629Z,35.90
2022-08-03T12:21:27.102Z,35.70
2022-08-03T12:24:00.213Z,35.70
2022-08-03T12:26:29.122Z,35.70
2022-08-03T12:28:57.580Z,35.70
2022-08-03T12:31:25.849Z,35.70
2022-08-03T12:34:01.836Z,35.80
2022-08-03T12:36:31.753Z,35.80
2022-08-03T12:39:01.581Z,35.80
2022-08-03T12:41:31.578Z,35.70
2022-08-03T12:44:00.024Z,35.80
2022-08-03T12:46:32.842Z,35.80
2022-08-03T12:49:11.183Z,36.00
2022-08-03T12:51:57.080Z,36.20
2022-08-03T12:54:26.542Z,36.20
2022-08-03T12:57:02.585Z,36.30
2022-08-03T12:59:35.356Z,36.30
2022-08-03T13:02:16.287Z,36.40
2022-08-03T13:04:48.706Z,36.50
2022-08-03T13:07:18.276Z,36.40
2022-08-03T13:09:49.452Z,36.40
2022-08-03T13:12:18.855Z,36.40
2022-08-03T13:14:48.487Z,36.60
2022-08-03T13:17:17.916Z,36.60
2022-08-03T13:19:48.999Z,36.60
2022-08-03T13:22:18.997Z,36.70
2022-08-03T13:24:48.676Z,36.80
2022-08-03T13:28:02.335Z,37.00
2022-08-03T13:30:06.004Z,37.00
2022-08-03T13:32:34.568Z,37.20
2022-08-03T13:35:04.475Z,37.30
2022-08-03T13:37:33.108Z,37.40
2022-08-03T13:40:03.046Z,37.60
2022-08-03T13:42:34.333Z,37.70
2022-08-03T13:45:03.054Z,37.70
2022-08-03T13:47:31.121Z,37.80
2022-08-03T13:50:01.387Z,37.80
2022-08-03T13:52:32.885Z,37.90
2022-08-03T13:55:01.289Z,37.90
2022-08-03T13:58:02.873Z,37.50
2022-08-03T14:00:27.117Z,37.10
2022-08-03T14:03:04.081Z,36.80
2022-08-03T14:05:33.657Z,36.60
2022-08-03T14:08:05.673Z,36.50
2022-08-03T14:10:35.630Z,36.60
2022-08-03T14:13:04.045Z,36.90
2022-08-03T14:15:37.913Z,37.20
2022-08-03T14:18:07.053Z,37.60
2022-08-03T14:20:36.587Z,38.00
2022-08-03T14:23:08.689Z,38.30
2022-08-03T14:25:49.907Z,38.20
2022-08-03T14:28:18.755Z,38.30
2022-08-03T14:30:47.826Z,38.40
2022-08-03T14:33:16.402Z,38.60
2022-08-03T14:35:44.758Z,38.60
2022-08-03T14:38:14.119Z,38.70
2022-08-03T14:40:42.174Z,38.70
2022-08-03T14:43:10.133Z,38.60
2022-08-03T14:45:38.075Z,38.60
2022-08-03T14:50:28.953Z,38.50
2022-08-03T14:50:55.331Z,38.40
2022-08-03T14:53:24.813Z,38.40
2022-08-03T14:55:53.438Z,38.30
2022-08-03T14:58:22.433Z,38.20
2022-08-03T15:00:52.044Z,37.90
2022-08-03T15:03:23.420Z,37.90
2022-08-03T15:05:52.819Z,38.00
2022-08-03T15:08:21.281Z,38.20
2022-08-03T15:10:51.288Z,38.30
2022-08-03T15:13:19.923Z,38.30
2022-08-03T15:15:48.674Z,38.20
2022-08-03T15:18:16.637Z,38.10
2022-08-03T15:20:46.366Z,38.00
2022-08-03T15:23:16.060Z,38.10
2022-08-03T15:26:06.549Z,38.20
2022-08-03T15:28:34.062Z,38.20
2022-08-03T15:31:02.507Z,38.20
2022-08-03T15:33:30.719Z,38.30
2022-08-03T15:35:59.931Z,38.30
2022-08-03T15:38:27.875Z,38.30
2022-08-03T15:40:56.160Z,38.40
2022-08-03T15:43:24.885Z,38.30
2022-08-03T15:46:26.655Z,38.20
2022-08-03T15:48:42.693Z,38.10
2022-08-03T15:51:11.457Z,38.20
2022-08-03T15:53:39.551Z,38.20
2022-08-03T15:56:14.220Z,38.20
2022-08-03T15:59:09.395Z,38.20
2022-08-03T16:01:34.127Z,38.10
2022-08-03T16:04:02.117Z,38.10
2022-08-03T16:06:35.924Z,38.00
2022-08-03T16:09:05.547Z,37.90
2022-08-03T16:11:52.408Z,37.70
2022-08-03T16:14:32.316Z,37.40
2022-08-03T16:17:05.067Z,37.10
2022-08-03T16:19:33.520Z,36.80
2022-08-03T16:22:01.536Z,36.50
2022-08-03T16:24:32.488Z,36.30
2022-08-03T16:27:01.067Z,36.10
2022-08-03T16:29:29.669Z,35.90
2022-08-03T16:31:57.651Z,35.90
2022-08-03T16:34:27.071Z,35.90
2022-08-03T16:36:55.610Z,35.80
2022-08-03T16:39:23.633Z,35.80
2022-08-03T16:41:53.519Z,35.80
2022-08-03T16:44:30.346Z,35.80
2022-08-03T16:46:58.628Z,35.90
2022-08-03T16:49:53.788Z,36.00
2022-08-03T16:52:16.578Z,36.00
2022-08-03T16:54:52.900Z,36.20
2022-08-03T16:57:56.213Z,36.30
2022-08-03T17:00:11.678Z,36.40
2022-08-03T17:02:48.378Z,36.40
2022-08-03T17:05:18.621Z,36.40
2022-08-03T17:07:50.581Z,36.40
2022-08-03T17:10:27.040Z,36.20
2022-08-03T17:12:56.495Z,36.10
2022-08-03T17:15:37.752Z,35.90
2022-08-03T17:18:09.615Z,35.80
2022-08-03T17:20:41.168Z,35.70
2022-08-03T17:23:34.600Z,35.50
2022-08-03T17:26:09.756Z,35.30
2022-08-03T17:28:50.115Z,35.20
2022-08-03T17:31:30.733Z,34.90
2022-08-03T17:34:02.025Z,34.80
2022-08-03T17:37:02.057Z,34.60
2022-08-03T17:39:41.685Z,34.50
2022-08-03T17:42:29.444Z,34.40
2022-08-03T17:45:02.287Z,34.20
2022-08-03T17:50:24.322Z,33.90
2022-08-03T17:53:14.424Z,33.80
2022-08-03T17:56:04.256Z,33.70
2022-08-03T17:58:54.776Z,33.60
2022-08-03T18:01:59.226Z,33.60
2022-08-03T18:04:34.791Z,33.60
2022-08-03T18:07:11.364Z,33.60
2022-08-03T18:10:04.729Z,33.50
2022-08-03T18:12:43.566Z,33.40
2022-08-03T18:15:21.311Z,33.40
2022-08-03T18:17:55.427Z,33.40
2022-08-03T18:20:34.465Z,33.30
2022-08-03T18:23:10.182Z,33.30
2022-08-03T18:25:50.067Z,33.30
2022-08-03T18:28:23.128Z,33.20
2022-08-03T18:34:17.504Z,33.10
2022-08-03T18:36:31.238Z,33.00
2022-08-03T18:39:02.687Z,32.90
2022-08-03T18:41:35.359Z,32.90
2022-08-03T18:44:07.286Z,32.80
2022-08-03T18:46:51.509Z,32.70
2022-08-03T18:49:41.602Z,32.60
2022-08-03T18:52:17.424Z,32.40
2022-08-03T18:55:02.320Z,32.30
2022-08-03T18:57:46.785Z,32.20
2022-08-03T19:00:24.426Z,32.00
2022-08-03T19:03:09.236Z,31.90
2022-08-03T19:06:02.522Z,31.60
2022-08-03T19:08:41.762Z,31.50
2022-08-03T19:11:13.302Z,31.30
2022-08-03T19:13:50.192Z,31.10
2022-08-03T19:16:25.473Z,31.00
2022-08-03T19:18:56.931Z,30.80
2022-08-03T19:21:26.046Z,30.60
2022-08-03T19:23:55.921Z,30.50
2022-08-03T19:26:30.190Z,30.40
2022-08-03T19:29:18.560Z,30.20
2022-08-03T19:31:59.085Z,30.10
2022-08-03T19:34:29.943Z,30.00
2022-08-03T19:36:58.529Z,29.90
2022-08-03T19:39:27.268Z,29.70
2022-08-03T19:41:59.383Z,29.60
2022-08-03T19:44:40.954Z,29.50
2022-08-03T19:47:12.028Z,29.40
2022-08-03T19:49:56.991Z,29.30
2022-08-03T19:52:37.758Z,29.20
2022-08-03T19:55:09.701Z,29.10
2022-08-03T19:57:43.326Z,29.00
2022-08-03T20:00:14.259Z,28.90
2022-08-03T20:02:43.456Z,28.80
2022-08-03T20:05:14.989Z,28.70
2022-08-03T20:07:47.825Z,28.70
2022-08-03T20:10:17.798Z,28.60
2022-08-03T20:12:46.316Z,28.50
2022-08-03T20:15:18.240Z,28.40
2022-08-03T20:17:59.954Z,28.30
2022-08-03T20:20:30.438Z,28.20
2022-08-03T20:23:00.764Z,28.20
2022-08-03T20:25:38.186Z,28.00
2022-08-03T20:28:14.269Z,28.00
2022-08-03T20:30:47.460Z,27.90
2022-08-03T20:33:18.673Z,27.90
2022-08-03T20:35:49.320Z,27.80
2022-08-03T20:38:18.527Z,27.70
2022-08-03T20:40:47.788Z,27.70
2022-08-03T20:43:15.916Z,27.60
2022-08-03T20:46:00.320Z,27.60
2022-08-03T20:48:35.702Z,27.50
2022-08-03T20:51:05.861Z,27.40
2022-08-03T20:54:00.591Z,27.40
2022-08-03T20:56:33.640Z,27.30
2022-08-03T20:59:03.147Z,27.20
2022-08-03T21:01:36.224Z,27.10
2022-08-03T21:04:06.772Z,27.10
2022-08-03T21:06:37.529Z,27.00
2022-08-03T21:09:07.599Z,27.00
2022-08-03T21:11:41.842Z,26.90
2022-08-03T21:13:05.029Z,33.10
2022-08-03T21:13:05.102Z,34.00
2022-08-03T21:14:15.142Z,26.90
2022-08-03T21:16:46.232Z,26.80
2022-08-03T21:19:16.470Z,26.80
2022-08-03T21:21:47.713Z,26.80
2022-08-03T21:24:16.492Z,26.70
2022-08-03T21:26:50.288Z,26.70
2022-08-03T21:29:19.179Z,26.70
2022-08-03T21:31:49.839Z,26.60
2022-08-03T21:34:18.761Z,26.60
2022-08-03T21:36:46.823Z,26.50
2022-08-03T21:39:14.806Z,26.50
2022-08-03T21:41:42.845Z,26.40
2022-08-03T21:44:10.883Z,26.30
2022-08-03T21:46:41.523Z,26.30
2022-08-03T21:49:52.089Z,26.30
2022-08-03T21:52:05.061Z,26.30
2022-08-03T21:54:35.890Z,26.20
2022-08-03T21:57:06.090Z,26.20
2022-08-03T21:59:39.347Z,26.10
2022-08-03T22:02:16.443Z,26.00
2022-08-03T22:04:56.233Z,26.00
2022-08-03T22:07:28.150Z,26.00
2022-08-03T22:09:57.386Z,25.90
2022-08-03T22:12:27.556Z,25.90
2022-08-03T22:15:00.999Z,25.80
2022-08-03T22:17:53.816Z,25.80
2022-08-03T22:20:21.061Z,25.80
2022-08-03T22:22:55.782Z,25.70
2022-08-03T22:25:28.640Z,25.70
2022-08-03T22:27:57.868Z,25.60
2022-08-03T22:30:25.943Z,25.60
2022-08-03T22:32:56.137Z,25.60
2022-08-03T22:35:26.925Z,25.60
2022-08-03T22:37:58.299Z,25.60
2022-08-03T22:40:27.566Z,25.60
2022-08-03T22:42:56.008Z,25.50
2022-08-03T22:46:07.095Z,25.50
2022-08-03T22:48:13.887Z,25.40
2022-08-03T22:50:45.381Z,25.40
2022-08-03T22:53:18.473Z,25.30
2022-08-03T22:55:46.867Z,25.20
2022-08-03T22:58:16.515Z,25.20
2022-08-03T23:00:48.419Z,25.10
2022-08-03T23:03:25.277Z,25.10
2022-08-03T23:06:17.219Z,25.00
2022-08-03T23:08:48.555Z,25.00
2022-08-03T23:11:19.378Z,24.90
2022-08-03T23:13:49.255Z,24.90
2022-08-03T23:16:29.143Z,24.90
2022-08-03T23:18:58.941Z,24.80
2022-08-03T23:21:51.245Z,24.80
2022-08-03T23:24:29.895Z,24.70
2022-08-03T23:26:59.034Z,24.70
2022-08-03T23:29:29.581Z,24.60
2022-08-03T23:31:58.516Z,24.60
2022-08-03T23:34:44.755Z,24.50
2022-08-03T23:37:15.868Z,24.50
2022-08-03T23:39:46.865Z,24.40
2022-08-03T23:42:16.836Z,24.40
2022-08-03T23:44:46.260Z,24.40
2022-08-03T23:47:14.933Z,24.30
2022-08-03T23:49:43.112Z,24.30
2022-08-03T23:52:16.518Z,24.20
2022-08-03T23:54:58.653Z,24.10
2022-08-03T23:57:33.971Z,24.10
